METAR AND TAF INFORMATION
METAR FOR LOWK
ADDS - METARS form results

(0713 UTC 20 June 2018)
Data provider http://aviationweather.gov/adds/metars/
 
METAR text: LOWK 200650Z VRB02KT 9999 FEW060 21/12 Q1025 NOSIG
Conditions at: LOWK (KLAGENFURT(CIV/M, AT) observed 0650 UTC 20 June 2018
Temperature: 21.0°C (70°F)
Dewpoint: 12.0°C (54°F) [RH = 56%]
Pressure (altimeter): 30.27 inches Hg (1025.0 mb)
Winds: variable direction winds at 2 MPH (2 knots; 1.0 m/s)
Visibility: 6 or more miles (10+ km)
Ceiling: at least 12,000 feet AGL
Clouds: few clouds at 6000 feet AGL
Weather: no significant weather observed at this time

METAR text: LOWK 200620Z VRB02KT 9999 FEW060 20/12 Q1025 NOSIG
Conditions at: LOWK (KLAGENFURT(CIV/M, AT) observed 0620 UTC 20 June 2018
Temperature: 20.0°C (68°F)
Dewpoint: 12.0°C (54°F) [RH = 60%]
Pressure (altimeter): 30.27 inches Hg (1025.0 mb)
Winds: variable direction winds at 2 MPH (2 knots; 1.0 m/s)
Visibility: 6 or more miles (10+ km)
Ceiling: at least 12,000 feet AGL
Clouds: few clouds at 6000 feet AGL
Weather: no significant weather observed at this time

Forecast for: LOWK (KLAGENFURT(CIV/M, AT)
Text: TAF LOWK 200515Z 2006/2106 13004KT 9999 FEW060 TX28/2015Z TN16/2103Z
Forecast period: 0600 UTC 20 June 2018 to 0600 UTC 21 June 2018
Forecast type: FROM: standard forecast or significant change
Winds: from the SE (130 degrees) at 5 MPH (4 knots; 2.1 m/s)
Visibility: 6 or more miles (10+ km)
Clouds: few clouds at 6000 feet AGL
Weather: no significant weather forecast for this period

 AIRPORT MAP

 RUNWAY INFORMATION
Runway 10L Runway length 8924 ft Runway width 148 ft
Runway elevation 1470 ft Runway displaced threshold 656 ft Runway heading 106
Runway 28R Runway length 8924 ft Runway width 148 ft
Runway elevation 1445 ft Runway displaced threshold 0 ft Runway heading 286
Runway 10R Runway length 2427 ft Runway width 90 ft
Runway elevation 1470 ft Runway displaced threshold 196 ft Runway heading 106
Runway 28L Runway length 2427 ft Runway width 90 ft
Runway elevation 1463 ft Runway displaced threshold 196 ft Runway heading 286

 AIRPORT FREQUENCIES
Type APP Name APP Frequency 126.825 MHZ
Type ATIS Name ATIS Frequency 124.075 MHZ
Type TWR Name TWR Frequency 118.1 MHZ

 AIRPORT NEAR NAVIGATION AIDS
Type VOR-DME Name Klagenfurt Frequency 113100 KHZ
Type NDB Name Klagenfurt Frequency 374 KHZ
Type NDB Name Klagenfurt Frequency 405 KHZ
Type VOR-DME Name Villach Frequency 112900 KHZ



Powered by Virtual Airlines Manager [v2.6.1]